Etusivu
METAR-TAF:

METAR-TAF

Lentoasemat :

Caldwell Industrial Airport

Caldwell, Idaho, Yhdysvallat

Leveyspiiri: 43-38N, Pituuspiiri: 116-38W, korkeus merenpinnasta: 740 m

Tämänhetkinen sää

Tämä raportti tehtiin 44 minuuttia sitten, kello 22.56 UTC
Tuuli 6 kn lännestä/luoteesta
Lämpötila 27°C
Kosteus 16%
Ilmanpaine 1014 hPa
Näkyvyys: 16.1 km
selkeää

METAR: KEUL 192256Z AUTO 29006KT 10SM CLR 27/M01 A2995 RMK AO2 SLP123 T02721011

Aika: 17:40 (23:40 UTC)

Sääennuste

Tämä raportti tehtiin 9 minuuttia sitten, kello 23.31 UTC
Ennuste voimassa 20. päivästä klo 00 UTC - 20. päivään klo 24 UTC
Tuuli 8 kn luoteesta puuskistuen 15 kn:hen
Näkyvyys: 10 km
selkeää
From 20. päivästä klo 0100 UTC
Tuuli 6 kn lännestä/luoteesta
Näkyvyys: 10 km
selkeää

TAF: KEUL 192331Z 2000/2024 32008G15KT P6SM SKC FM200100 30006KT P6SM SKC

Säähavainnot ja -ennusteet yli 4000 lentoasemalta (METAR- ja TAF-raportit).

Käytössä olevat sääasemat on merkitty karttaan keltaisilla ja punaisilla pisteillä.

Aseta hiiri pisteen päälle nähdäksesi sääaseman nimen.

Klikkaa sitten nähdäksesi säähavainnot ja -ennusteet.

Kartan vaihtaminen: klikkaa mustalla rastilla varustettuja vihreitä pisteitä, niin voit zoomata sisään; viivalla varustettua vihreää pistettä, niin voit zoomata ulos tai vihreitä nuolia, niin pääset viereisille kartoille.


METAR-TAF: